Allahabad Airport


Codes: VIAL/IXD
Name: Allahabad Airport
City: Allahabad
Country: India
Elevation: 322 ft.
Website:
Wikipedia:

Photos at Allahabad Airport


   Photos courtesy of SpottingLog. You can add your own sightings and photos by signing up for a free trial today.



No photos found.

Weather at Allahabad Airport


Time (UTC)DescriptionTempratureWindCloud coverageVisibilityPressureHumidity
13-Jun-2024 03:00Clear Sky37°C18 mph, W1%10000m999hPa30%
13-Jun-2024 06:00Clear Sky42°C11 mph, W2%10000m998hPa20%
13-Jun-2024 09:00Clear Sky48°C11 mph, W3%10000m995hPa9%
13-Jun-2024 12:00Clear Sky47°C13 mph, W5%10000m993hPa8%
13-Jun-2024 15:00Clear Sky42°C9 mph, W8%10000m995hPa11%
13-Jun-2024 18:00Clear Sky40°C16 mph, NW6%10000m996hPa20%
13-Jun-2024 21:00Broken Clouds38°C16 mph, W80%10000m996hPa22%
14-Jun-2024 00:00Broken Clouds37°C11 mph, W79%10000m997hPa24%
14-Jun-2024 03:00Scattered Clouds40°C13 mph, W33%10000m999hPa19%
14-Jun-2024 06:00Few Clouds45°C13 mph, NW17%10000m998hPa13%
14-Jun-2024 09:00Clear Sky47°C11 mph, NW0%10000m994hPa11%
14-Jun-2024 12:00Clear Sky47°C11 mph, NW4%10000m993hPa11%
14-Jun-2024 15:00Clear Sky42°C18 mph, W5%10000m996hPa16%
14-Jun-2024 18:00Clear Sky41°C16 mph, W5%10000m996hPa17%
14-Jun-2024 21:00Clear Sky38°C16 mph, W6%10000m996hPa24%
15-Jun-2024 00:00Scattered Clouds37°C7 mph, NW36%10000m998hPa24%
15-Jun-2024 03:00Scattered Clouds41°C16 mph, NW44%10000m999hPa20%
15-Jun-2024 06:00Few Clouds46°C11 mph, NW23%10000m997hPa15%
15-Jun-2024 09:00Clear Sky48°C13 mph, NW6%10000m994hPa12%
15-Jun-2024 12:00Clear Sky47°C13 mph, NW6%10000m993hPa13%
15-Jun-2024 15:00Clear Sky43°C13 mph, NW4%10000m995hPa16%
15-Jun-2024 18:00Clear Sky41°C13 mph, NW5%10000m995hPa19%
15-Jun-2024 21:00Few Clouds39°C13 mph, W11%10000m995hPa21%
16-Jun-2024 00:00Scattered Clouds38°C9 mph, NW28%10000m997hPa25%
16-Jun-2024 03:00Clear Sky42°C16 mph, NW6%10000m999hPa19%
16-Jun-2024 06:00Clear Sky46°C16 mph, NW3%10000m997hPa15%
16-Jun-2024 09:00Clear Sky48°C11 mph, NW1%10000m994hPa13%
16-Jun-2024 12:00Clear Sky47°C13 mph, NW6%10000m993hPa13%
16-Jun-2024 15:00Scattered Clouds43°C9 mph, W28%10000m994hPa16%
16-Jun-2024 18:00Few Clouds42°C11 mph, W23%10000m994hPa19%
16-Jun-2024 21:00Overcast Clouds39°C4 mph, NE100%10000m995hPa25%
17-Jun-2024 00:00Overcast Clouds38°C7 mph, NE100%10000m996hPa35%
17-Jun-2024 03:00Overcast Clouds40°C7 mph, NE100%10000m998hPa35%
17-Jun-2024 06:00Overcast Clouds45°C11 mph, N100%10000m997hPa20%
17-Jun-2024 09:00Few Clouds47°C13 mph, N17%10000m994hPa15%
17-Jun-2024 12:00Scattered Clouds44°C4 mph, NW35%10000m993hPa19%
17-Jun-2024 15:00Broken Clouds43°C7 mph, NE76%10000m994hPa20%
17-Jun-2024 18:00Overcast Clouds40°C13 mph, E88%10000m995hPa34%
17-Jun-2024 21:00Overcast Clouds37°C11 mph, E98%10000m994hPa44%
18-Jun-2024 00:00Overcast Clouds34°C9 mph, E99%10000m995hPa54%